Time;durP1;ratioP1;P1;durP2;ratioP2;P2;SDS_P1;SDS_P2;PMS_P1;PMS_P2;Temp;Humidity;BMP_temperature;BMP_pressure;BME280_temperature;BME280_humidity;BME280_pressure;Samples;Min_cycle;Max_cycle;Signal;HPM_P1;HPM_P2
2023/07/09 00:02:50;;;;;;;;;;;;;;;22.12;52.36;99941.31;10244430;28;890;-67
2023/07/09 00:07:46;;;;;;;;;;;;;;;22.11;52.43;99940.44;10244188;28;1902;-66
2023/07/09 00:12:42;;;;;;;;;;;;;;;22.09;52.18;99940.53;10244687;28;818;-67
2023/07/09 00:17:39;;;;;;;;;;;;;;;22.12;52.05;99941.31;10243483;28;862;-66
2023/07/09 00:22:35;;;;;;;;;;;;;;;22.12;52.23;99947.47;10244034;28;827;-67
2023/07/09 00:27:31;;;;;;;;;;;;;;;22.12;52.15;99949.28;10251045;28;1953;-66
2023/07/09 00:32:28;;;;;;;;;;;;;;;22.12;52.03;99949.28;10253128;28;1125;-66
2023/07/09 00:37:27;;;;;;;;;;;;;;;22.09;52.06;99951.16;10251873;28;952;-66
2023/07/09 00:42:23;;;;;;;;;;;;;;;22.12;52.05;99942.16;10252285;28;859;-66
2023/07/09 00:47:19;;;;;;;;;;;;;;;22.09;52.30;99940.53;10251412;28;1910;-66
2023/07/09 00:52:17;;;;;;;;;;;;;;;22.09;52.19;99929.06;10251392;28;750;-66
2023/07/09 00:57:17;;;;;;;;;;;;;;;22.08;52.10;99932.66;10251699;28;798;-66
2023/07/09 01:02:12;;;;;;;;;;;;;;;22.06;52.13;99935.41;10250939;28;827;-66
2023/07/09 01:07:08;;;;;;;;;;;;;;;22.06;51.65;99938.06;10251323;28;1898;-66
2023/07/09 01:12:04;;;;;;;;;;;;;;;22.09;51.78;99942.34;10250658;28;822;-66
2023/07/09 01:17:00;;;;;;;;;;;;;;;22.05;52.13;99938.16;10250001;28;920;-67
2023/07/09 01:21:58;;;;;;;;;;;;;;;22.07;51.91;99930.97;10250910;28;814;-66
2023/07/09 01:26:54;;;;;;;;;;;;;;;22.06;51.94;99937.19;10250669;28;1961;-66
2023/07/09 01:31:51;;;;;;;;;;;;;;;22.08;52.04;99941.47;10249841;28;1136;-66
2023/07/09 01:36:47;;;;;;;;;;;;;;;22.07;51.97;99942.44;10249349;28;954;-66
2023/07/09 01:41:43;;;;;;;;;;;;;;;22.03;52.09;99940.91;10249573;28;838;-66
2023/07/09 01:46:39;;;;;;;;;;;;;;;22.07;52.08;99936.25;10249316;28;934;-66
2023/07/09 01:51:36;;;;;;;;;;;;;;;22.06;52.04;99932.75;10249659;28;1971;-66
2023/07/09 01:56:31;;;;;;;;;;;;;;;22.03;52.26;99940.03;10249095;28;845;-66
2023/07/09 02:01:27;;;;;;;;;;;;;;;22.03;52.23;99937.38;10248794;28;802;-66
2023/07/09 02:06:24;;;;;;;;;;;;;;;22.06;51.96;99945.16;10249243;28;823;-66
2023/07/09 02:11:20;;;;;;;;;;;;;;;22.06;52.06;99943.38;10248922;28;1963;-66
2023/07/09 02:16:15;;;;;;;;;;;;;;;22.08;52.04;99938.81;10248831;28;814;-66
2023/07/09 02:21:11;;;;;;;;;;;;;;;22.06;52.08;99932.75;10247939;28;833;-66
2023/07/09 02:26:07;;;;;;;;;;;;;;;22.00;52.38;99938.41;10247874;28;929;-66
2023/07/09 02:31:03;;;;;;;;;;;;;;;22.00;52.00;99941.06;10247272;28;1897;-67
2023/07/09 02:35:59;;;;;;;;;;;;;;;22.03;51.99;99946.22;10248491;28;927;-66
2023/07/09 02:40:55;;;;;;;;;;;;;;;22.03;52.19;99950.66;10247237;28;846;-67
2023/07/09 02:45:51;;;;;;;;;;;;;;;22.03;52.27;99954.19;10248268;28;888;-66
2023/07/09 02:50:47;;;;;;;;;;;;;;;22.04;52.00;99952.38;10246623;28;1977;-67
2023/07/09 02:55:43;;;;;;;;;;;;;;;22.03;52.15;99962.16;10247288;28;870;-66
2023/07/09 03:00:39;;;;;;;;;;;;;;;22.03;52.04;99951.53;10246844;28;916;-67
2023/07/09 03:05:34;;;;;;;;;;;;;;;21.99;52.53;99965.06;10246298;28;965;-66
2023/07/09 03:10:30;;;;;;;;;;;;;;;21.96;52.47;99958.13;10246099;28;1905;-66
2023/07/09 03:15:26;;;;;;;;;;;;;;;21.96;52.47;99968.75;10245375;28;897;-66
2023/07/09 03:20:22;;;;;;;;;;;;;;;22.00;52.24;99972.91;10245746;28;897;-66
2023/07/09 03:25:18;;;;;;;;;;;;;;;21.99;52.51;99973.88;10245728;28;869;-67
2023/07/09 03:30:14;;;;;;;;;;;;;;;22.02;52.24;99978.16;10245355;28;1953;-66
2023/07/09 03:35:10;;;;;;;;;;;;;;;22.00;52.41;99988.84;10245670;28;1488;-66
2023/07/09 03:40:06;;;;;;;;;;;;;;;21.99;52.27;99987.13;10244406;28;904;-67
2023/07/09 03:45:02;;;;;;;;;;;;;;;21.99;52.46;99991.59;10244820;28;871;-66
2023/07/09 03:49:57;;;;;;;;;;;;;;;21.99;52.52;99995.09;10244717;28;1910;-66
2023/07/09 03:54:53;;;;;;;;;;;;;;;21.98;52.46;99982.78;10244602;28;771;-67
2023/07/09 03:59:49;;;;;;;;;;;;;;;21.98;52.34;99989.88;10245002;28;814;-67
2023/07/09 04:04:45;;;;;;;;;;;;;;;21.95;52.54;99988.25;10244597;28;900;-66
2023/07/09 04:09:41;;;;;;;;;;;;;;;21.96;52.44;99987.31;10244625;28;1898;-67
2023/07/09 04:14:37;;;;;;;;;;;;;;;21.95;52.60;99988.25;10244196;28;881;-67
2023/07/09 04:19:33;;;;;;;;;;;;;;;21.96;52.70;99992.63;10243605;28;1003;-66
2023/07/09 04:24:28;;;;;;;;;;;;;;;21.79;53.81;99984.75;10243961;28;789;-67
2023/07/09 04:29:24;;;;;;;;;;;;;;;21.56;54.88;99983.38;10243743;28;1965;-68
2023/07/09 04:34:20;;;;;;;;;;;;;;;21.40;55.54;99988.66;10240924;28;1217;-68
2023/07/09 04:39:16;;;;;;;;;;;;;;;21.29;56.39;99994.53;10239961;28;12589;-69
2023/07/09 04:44:12;;;;;;;;;;;;;;;21.30;56.80;99995.38;10239893;28;11251;-68
2023/07/09 04:49:08;;;;;;;;;;;;;;;21.28;57.02;99997.28;10238218;28;96051;-68
2023/07/09 04:54:04;;;;;;;;;;;;;;;21.21;57.02;100002.88;10241761;28;10865;-68
2023/07/09 04:59:00;;;;;;;;;;;;;;;21.21;57.24;100005.53;10244731;28;12298;-67
2023/07/09 05:03:56;;;;;;;;;;;;;;;21.31;57.29;100010.34;10243223;28;970;-67
2023/07/09 05:08:52;;;;;;;;;;;;;;;21.23;58.26;100005.47;10243651;28;1973;-69
2023/07/09 05:13:47;;;;;;;;;;;;;;;20.91;59.65;100013.31;10250057;28;838;-68
2023/07/09 05:18:44;;;;;;;;;;;;;;;21.21;59.46;100016.13;10250364;28;864;-68
2023/07/09 05:23:40;;;;;;;;;;;;;;;21.46;58.08;100006.91;10251334;28;806;-69
2023/07/09 05:28:35;;;;;;;;;;;;;;;21.59;57.91;100007.94;10249643;28;1898;-69
2023/07/09 05:33:31;;;;;;;;;;;;;;;21.58;58.00;100000.91;10250343;28;1326;-68
2023/07/09 05:38:27;;;;;;;;;;;;;;;21.36;59.87;100001.22;10250344;28;921;-69
2023/07/09 05:43:23;;;;;;;;;;;;;;;21.62;58.07;100007.78;10249509;28;915;-68
2023/07/09 05:48:19;;;;;;;;;;;;;;;21.62;58.82;100015.75;10249196;28;1914;-70
2023/07/09 05:53:15;;;;;;;;;;;;;;;21.74;57.88;100018.66;10249170;28;898;-69
2023/07/09 05:58:11;;;;;;;;;;;;;;;21.78;57.64;100014.91;10248955;28;791;-68
2023/07/09 06:03:07;;;;;;;;;;;;;;;21.78;57.76;100015.75;10249473;28;888;-68
2023/07/09 06:08:03;;;;;;;;;;;;;;;21.84;57.10;100018.03;10249002;28;1951;-68
2023/07/09 06:12:59;;;;;;;;;;;;;;;21.87;57.23;100020.53;10247787;28;807;-69
2023/07/09 06:17:55;;;;;;;;;;;;;;;21.90;59.03;100016.84;10248787;28;795;-69
2023/07/09 06:22:50;;;;;;;;;;;;;;;21.91;57.43;100020.38;10246860;28;969;-68
2023/07/09 06:27:46;;;;;;;;;;;;;;;21.93;57.23;100018.47;10245381;28;1970;-68
2023/07/09 06:32:42;;;;;;;;;;;;;;;21.94;56.90;100015.75;10246807;28;1238;-66
2023/07/09 06:37:38;;;;;;;;;;;;;;;21.97;56.85;100022.66;10247003;28;905;-66
2023/07/09 06:42:34;;;;;;;;;;;;;;;21.99;56.59;100018.13;10246723;28;886;-66
2023/07/09 06:47:30;;;;;;;;;;;;;;;22.00;56.49;100023.34;10246995;28;1969;-66
2023/07/09 06:52:26;;;;;;;;;;;;;;;22.01;56.32;100021.56;10247144;28;868;-66
2023/07/09 06:57:21;;;;;;;;;;;;;;;22.02;56.10;100018.81;10246805;28;880;-66
2023/07/09 07:02:18;;;;;;;;;;;;;;;22.06;56.14;100019.47;10246165;28;1287;-66
2023/07/09 07:07:14;;;;;;;;;;;;;;;22.06;56.10;100025.66;10245707;28;1906;-65
2023/07/09 07:12:10;;;;;;;;;;;;;;;22.05;56.21;100021.28;10246719;28;790;-66
2023/07/09 07:17:05;;;;;;;;;;;;;;;22.06;55.90;100019.47;10245389;28;802;-66
2023/07/09 07:22:01;;;;;;;;;;;;;;;22.06;55.79;100023.03;10246584;28;905;-66
2023/07/09 07:26:57;;;;;;;;;;;;;;;22.07;55.89;100013.25;10245135;28;1906;-66
2023/07/09 07:31:53;;;;;;;;;;;;;;;22.06;55.95;100009.75;10245263;28;1122;-67
2023/07/09 07:36:49;;;;;;;;;;;;;;;22.08;55.77;100007.84;10244767;28;886;-66
2023/07/09 07:41:45;;;;;;;;;;;;;;;22.10;55.69;100013.91;10245010;28;841;-65
2023/07/09 07:46:41;;;;;;;;;;;;;;;22.12;56.11;100015.66;10244441;28;859;-66
2023/07/09 07:51:37;;;;;;;;;;;;;;;22.14;56.04;100016.38;10244651;28;1910;-66
2023/07/09 07:56:33;;;;;;;;;;;;;;;22.14;55.82;100022.59;10244107;28;1217;-66
2023/07/09 08:01:29;;;;;;;;;;;;;;;22.16;55.71;100014.50;10244939;28;806;-66
2023/07/09 08:06:24;;;;;;;;;;;;;;;22.17;55.62;100008.28;10243995;28;858;-66
2023/07/09 08:11:20;;;;;;;;;;;;;;;22.20;55.61;100013.44;10244772;28;1894;-67
2023/07/09 08:16:16;;;;;;;;;;;;;;;22.19;55.38;100009.06;10245541;28;837;-66
2023/07/09 08:21:12;;;;;;;;;;;;;;;22.19;55.45;99998.44;10244628;28;948;-67
2023/07/09 08:26:08;;;;;;;;;;;;;;;22.21;55.59;100000.06;10243829;28;819;-65
2023/07/09 08:31:04;;;;;;;;;;;;;;;22.22;55.96;100006.25;10243522;28;1902;-66
2023/07/09 08:36:00;;;;;;;;;;;;;;;22.22;56.17;100004.44;10243711;28;743;-66
2023/07/09 08:40:56;;;;;;;;;;;;;;;22.24;55.82;99999.03;10243630;28;826;-66
2023/07/09 08:45:52;;;;;;;;;;;;;;;22.24;56.02;100001.69;10242398;28;1169;-66
2023/07/09 08:50:48;;;;;;;;;;;;;;;22.23;55.65;99992.88;10250883;28;1914;-66
2023/07/09 08:55:43;;;;;;;;;;;;;;;22.24;55.59;99985.75;10251131;28;909;-65
2023/07/09 09:00:41;;;;;;;;;;;;;;;22.25;55.61;99990.13;10250780;28;921;-66
2023/07/09 09:05:37;;;;;;;;;;;;;;;22.26;55.79;99989.19;10250469;28;859;-66
2023/07/09 09:10:33;;;;;;;;;;;;;;;22.26;55.90;99989.19;10250396;28;1957;-66
2023/07/09 09:15:29;;;;;;;;;;;;;;;22.26;55.91;99978.56;10250027;28;786;-66
2023/07/09 09:20:26;;;;;;;;;;;;;;;22.26;55.74;99989.19;10250522;28;834;-66
2023/07/09 09:25:21;;;;;;;;;;;;;;;22.28;55.66;99979.31;10237080;28;1846;-67
2023/07/09 09:30:17;;;;;;;;;;;;;;;22.28;55.68;99982.84;10248183;28;1894;-66
2023/07/09 09:35:13;;;;;;;;;;;;;;;22.30;55.74;99983.59;10250559;28;1392;-66
2023/07/09 09:40:09;;;;;;;;;;;;;;;22.31;55.44;99976.50;10249040;28;857;-66
2023/07/09 09:45:06;;;;;;;;;;;;;;;22.33;55.43;99973.75;10249092;28;959;-66
2023/07/09 09:50:02;;;;;;;;;;;;;;;22.34;55.78;99976.31;10248536;28;1922;-65
2023/07/09 09:54:58;;;;;;;;;;;;;;;22.35;55.37;99966.53;10248792;28;1173;-66
2023/07/09 09:59:56;;;;;;;;;;;;;;;22.35;55.42;99975.38;10248318;28;767;-66
2023/07/09 10:04:52;;;;;;;;;;;;;;;22.35;55.44;99969.19;10248461;28;1071;-66
2023/07/09 10:09:49;;;;;;;;;;;;;;;22.36;55.43;99976.22;10248033;28;1894;-65
2023/07/09 10:14:44;;;;;;;;;;;;;;;22.37;55.56;99969.97;10248047;28;1327;-69
2023/07/09 10:19:40;;;;;;;;;;;;;;;22.38;55.65;99972.53;10248503;28;841;-66
2023/07/09 10:24:37;;;;;;;;;;;;;;;22.40;55.35;99973.31;10248027;28;782;-66
2023/07/09 10:29:32;;;;;;;;;;;;;;;22.39;55.34;99968.91;10248193;28;1894;-66
2023/07/09 10:34:28;;;;;;;;;;;;;;;22.39;55.34;99966.25;10247005;28;1394;-64
2023/07/09 10:39:24;;;;;;;;;;;;;;;22.40;55.32;99964.47;10246303;28;1133;-66
2023/07/09 10:44:20;;;;;;;;;;;;;;;22.41;55.27;99953.75;10246281;28;889;-66
2023/07/09 10:49:16;;;;;;;;;;;;;;;22.42;55.39;99947.47;10247337;28;1902;-66
2023/07/09 10:54:12;;;;;;;;;;;;;;;22.43;54.94;99943.91;10245745;28;1041;-66
2023/07/09 10:59:08;;;;;;;;;;;;;;;22.45;54.90;99935.81;10246600;28;882;-65
2023/07/09 11:04:04;;;;;;;;;;;;;;;22.36;55.29;99929.28;10246271;28;782;-66
2023/07/09 11:09:00;;;;;;;;;;;;;;;22.30;55.39;99942.94;10245468;28;1957;-66
2023/07/09 11:13:57;;;;;;;;;;;;;;;22.28;55.39;99931.53;10245531;28;896;-66
2023/07/09 11:18:52;;;;;;;;;;;;;;;22.26;55.68;99928.09;10245624;28;881;-66
2023/07/09 11:23:48;;;;;;;;;;;;;;;22.26;55.61;99920.13;10244660;28;1133;-66
2023/07/09 11:28:44;;;;;;;;;;;;;;;22.26;55.39;99920.13;10245795;28;1894;-66
2023/07/09 11:33:40;;;;;;;;;;;;;;;22.25;55.38;99915.78;10243543;28;1292;-66
2023/07/09 11:38:36;;;;;;;;;;;;;;;22.25;55.29;99918.44;10243642;28;786;-66
2023/07/09 11:43:32;;;;;;;;;;;;;;;22.25;55.15;99913.13;10242673;28;936;-65
2023/07/09 11:48:28;;;;;;;;;;;;;;;22.25;55.33;99907.81;10242967;28;1969;-65
2023/07/09 11:53:24;;;;;;;;;;;;;;;22.26;55.48;99904.22;10243506;28;756;-65
2023/07/09 11:58:20;;;;;;;;;;;;;;;22.27;55.08;99901.47;10243002;28;816;-65
2023/07/09 12:03:16;;;;;;;;;;;;;;;22.26;55.40;99889.13;10243344;28;967;-66
2023/07/09 12:08:11;;;;;;;;;;;;;;;22.24;55.24;99891.03;10242754;28;1890;-65
2023/07/09 12:13:07;;;;;;;;;;;;;;;22.25;55.56;99878.63;10242687;28;802;-66
2023/07/09 12:18:04;;;;;;;;;;;;;;;22.25;55.36;99865.34;10243099;28;1032;-65
2023/07/09 12:23:00;;;;;;;;;;;;;;;22.24;55.26;99864.50;10241162;28;862;-65
2023/07/09 12:27:56;;;;;;;;;;;;;;;22.25;55.78;99865.34;10242202;28;1897;-66
2023/07/09 12:32:52;;;;;;;;;;;;;;;22.26;55.47;99857.25;10203206;28;1124506;-66
2023/07/09 12:37:49;;;;;;;;;;;;;;;22.27;55.64;99855.47;10243563;28;1013;-65
2023/07/09 12:42:44;;;;;;;;;;;;;;;22.28;55.34;99857.19;10243661;28;802;-64
2023/07/09 12:47:40;;;;;;;;;;;;;;;22.29;55.27;99857.06;10244658;28;1922;-66
2023/07/09 12:52:36;;;;;;;;;;;;;;;22.28;55.32;99847.41;10243733;28;857;-66
2023/07/09 12:57:33;;;;;;;;;;;;;;;22.30;55.45;99842.00;10243643;28;980;-66
2023/07/09 13:02:29;;;;;;;;;;;;;;;22.28;55.43;99836.78;10243529;28;829;-68
2023/07/09 13:07:25;;;;;;;;;;;;;;;22.30;55.44;99828.75;10243150;28;1961;-68
2023/07/09 13:12:21;;;;;;;;;;;;;;;22.33;55.22;99825.88;10243237;28;892;-68
2023/07/09 13:17:16;;;;;;;;;;;;;;;22.33;55.07;99820.56;10243029;28;865;-68
2023/07/09 13:22:12;;;;;;;;;;;;;;;22.34;54.85;99822.28;10242955;28;767;-68
2023/07/09 13:27:08;;;;;;;;;;;;;;;22.35;55.04;99812.50;10242916;28;1902;-68
2023/07/09 13:32:04;;;;;;;;;;;;;;;22.35;54.82;99818.69;10244372;28;1102;-68
2023/07/09 13:37:00;;;;;;;;;;;;;;;22.36;54.76;99816.88;10249903;28;932;-68
2023/07/09 13:41:56;;;;;;;;;;;;;;;22.37;54.68;99815.91;10250427;28;902;-68
2023/07/09 13:46:52;;;;;;;;;;;;;;;22.38;54.73;99823.81;10250693;28;824;-68
2023/07/09 13:51:48;;;;;;;;;;;;;;;22.38;54.53;99802.56;10249227;28;1914;-68
2023/07/09 13:56:43;;;;;;;;;;;;;;;22.39;54.48;99809.56;10249745;28;901;-68
2023/07/09 14:01:39;;;;;;;;;;;;;;;22.41;54.58;99804.19;10249050;28;792;-68
2023/07/09 14:06:35;;;;;;;;;;;;;;;22.42;54.49;99787.28;10248669;28;835;-68
2023/07/09 14:11:31;;;;;;;;;;;;;;;22.43;54.43;99786.34;10248463;28;1961;-69
2023/07/09 14:16:27;;;;;;;;;;;;;;;22.43;54.12;99771.25;10246326;28;1115;-69
2023/07/09 14:21:23;;;;;;;;;;;;;;;22.43;54.28;99765.09;10248018;28;922;-68
2023/07/09 14:26:19;;;;;;;;;;;;;;;22.46;54.33;99775.53;10247364;28;924;-69
2023/07/09 14:31:14;;;;;;;;;;;;;;;22.46;54.38;99762.25;10247453;28;1956;-68
2023/07/09 14:36:10;;;;;;;;;;;;;;;22.46;54.30;99768.41;10247238;28;908;-68
2023/07/09 14:41:06;;;;;;;;;;;;;;;22.48;54.11;99766.53;10247254;28;837;-70
2023/07/09 14:46:02;;;;;;;;;;;;;;;22.50;54.29;99758.44;10245857;28;1153;-66
2023/07/09 14:50:58;;;;;;;;;;;;;;;22.51;54.38;99779.59;10246764;28;1914;-64
2023/07/09 14:55:54;;;;;;;;;;;;;;;22.49;55.09;99773.53;10246362;28;874;-65
2023/07/09 15:00:50;;;;;;;;;;;;;;;22.49;54.99;99768.22;10246282;28;956;-65
2023/07/09 15:05:46;;;;;;;;;;;;;;;22.49;55.18;99768.22;10245441;28;884;-65
2023/07/09 15:10:42;;;;;;;;;;;;;;;22.51;55.16;99782.25;10246114;28;1961;-65
2023/07/09 15:15:37;;;;;;;;;;;;;;;22.52;55.11;99805.19;10245624;28;910;-65
2023/07/09 15:20:33;;;;;;;;;;;;;;;22.52;55.14;99814.97;10245725;28;803;-65
2023/07/09 15:25:30;;;;;;;;;;;;;;;22.53;55.46;99827.31;10245277;28;794;-66
2023/07/09 15:30:26;;;;;;;;;;;;;;;22.54;55.12;99893.63;10245346;28;1898;-65
2023/07/09 15:35:22;;;;;;;;;;;;;;;22.54;55.41;99941.44;10245002;28;841;-65
2023/07/09 15:40:18;;;;;;;;;;;;;;;22.56;55.26;99999.81;10244523;28;807;-65
2023/07/09 15:45:14;;;;;;;;;;;;;;;22.57;55.44;100016.59;10244309;28;1249;-65
2023/07/09 15:50:10;;;;;;;;;;;;;;;22.57;55.26;100003.31;10245793;28;9666;-66
2023/07/09 15:55:06;;;;;;;;;;;;;;;22.57;55.42;99979.41;10245091;28;10960;-65
2023/07/09 16:00:02;;;;;;;;;;;;;;;22.58;55.41;99978.44;10244978;28;739;-65
2023/07/09 16:04:57;;;;;;;;;;;;;;;22.57;55.40;99964.31;10244279;28;818;-65
2023/07/09 16:09:53;;;;;;;;;;;;;;;22.59;55.47;99988.16;10244503;28;1890;-65
2023/07/09 16:14:49;;;;;;;;;;;;;;;22.59;55.39;99998.78;10244280;28;1217;-67
2023/07/09 16:19:45;;;;;;;;;;;;;;;22.60;55.53;100019.06;10243909;28;967;-64
2023/07/09 16:24:41;;;;;;;;;;;;;;;22.60;55.51;99984.53;10243752;28;850;-65
2023/07/09 16:29:37;;;;;;;;;;;;;;;22.60;55.57;99969.44;10243496;28;1918;-65
2023/07/09 16:34:33;;;;;;;;;;;;;;;22.62;55.46;100028.66;10243129;28;1349;-64
2023/07/09 16:39:29;;;;;;;;;;;;;;;22.63;55.70;100041.00;10243709;28;988;-64
2023/07/09 16:44:24;;;;;;;;;;;;;;;22.60;58.35;100067.75;10243755;28;835;-64
2023/07/09 16:49:20;;;;;;;;;;;;;;;22.31;63.76;100078.25;10243065;28;1906;-66
2023/07/09 16:54:16;;;;;;;;;;;23.10;72.10;;;22.30;63.69;100068.59;10242296;28;936;-67
2023/07/09 16:59:11;;;;;;;;;;;23.20;73.70;;;22.43;63.25;100055.47;10243410;28;781;-67
2023/07/09 17:04:07;;;;;;;;;;;23.30;73.20;;;22.41;63.22;100032.59;10243108;28;762;-67
2023/07/09 17:09:03;;;;;;;;;;;23.40;72.50;;;22.47;64.02;100041.03;10247966;28;1967;-67
2023/07/09 17:13:58;;;;;;;;;;;23.50;72.50;;;22.58;62.18;100039.56;10250765;28;882;-68
2023/07/09 17:18:54;;;;;;;;;;;23.60;70.80;;;22.31;66.97;100074.75;10251342;28;972;-67
2023/07/09 17:23:50;;;;;;;;;;;23.30;76.90;;;22.31;66.53;100082.72;10250363;28;899;-67
2023/07/09 17:28:46;;;;;;;;;;;23.20;77.20;;;22.27;66.94;100065.25;10251057;28;1910;-67
2023/07/09 17:33:42;;;;;;;;;;;23.20;78.10;;;22.52;65.40;100006.25;10249088;28;1108;-67
2023/07/09 17:38:37;;;;;;;;;;;23.40;75.20;;;22.61;64.37;99952.56;10247968;28;1150;-68
2023/07/09 17:43:33;;;;;;;;;;;23.50;74.20;;;22.59;64.73;99932.38;10249715;28;892;-67
2023/07/09 17:48:29;;;;;;;;;;;23.60;75.20;;;22.65;64.83;99908.91;10249565;28;11130;-67
2023/07/09 17:53:24;;;;;;;;;;;23.60;77.00;;;22.65;65.32;99902.75;10249654;28;791;-67
2023/07/09 17:58:20;;;;;;;;;;;23.70;76.20;;;22.60;66.41;99887.09;10248544;28;1114;-67
2023/07/09 18:03:15;;;;;;;;;;;23.70;77.60;;;22.75;68.00;99864.88;10247850;28;959;-67
2023/07/09 18:08:11;;;;;;;;;;;23.70;77.50;;;22.82;64.69;99848.56;10249053;28;1906;-67
2023/07/09 18:13:07;;;;;;;;;;;23.80;75.30;;;22.91;64.44;99837.34;10248389;28;833;-67
2023/07/09 18:18:02;;;;;;;;;;;23.80;75.70;;;22.96;64.17;99825.50;10247645;28;922;-67
2023/07/09 18:22:58;;;;;;;;;;;23.90;75.30;;;23.05;63.51;99828.53;10248156;28;929;-68
2023/07/09 18:27:53;;;;;;;;;;;23.90;73.30;;;22.93;63.79;99812.38;10248114;28;1898;-66
2023/07/09 18:32:55;;;;;;;;;;;23.90;72.70;;;22.91;63.09;99827.56;10246967;28;1173;-66
2023/07/09 18:37:51;;;;;;;;;;;23.90;71.50;;;22.91;63.15;99840.00;10247420;28;1018;-66
2023/07/09 18:42:46;;;;;;;;;;;23.90;71.00;;;22.90;62.95;99857.78;10247149;28;830;-66
2023/07/09 18:47:42;;;;;;;;;;;23.90;70.40;;;22.90;62.46;99857.78;10246243;28;1906;-66
2023/07/09 18:52:37;;;;;;;;;;;24.00;70.20;;;22.90;62.04;99854.25;10247402;28;941;-66
2023/07/09 18:57:33;;;;;;;;;;;24.00;70.30;;;22.90;62.29;99870.22;10246105;28;936;-67
2023/07/09 19:02:28;;;;;;;;;;;24.00;70.40;;;22.89;62.39;99887.09;10246654;28;826;-64
2023/07/09 19:07:24;;;;;;;;;;;24.00;69.60;;;22.89;62.17;99882.63;10246297;28;1902;-64
2023/07/09 19:12:19;;;;;;;;;;;24.00;69.90;;;22.90;62.17;99894.13;10245929;28;814;-64
2023/07/09 19:17:14;;;;;;;;;;;24.00;70.60;;;22.90;62.54;99889.66;10245555;28;877;-64
2023/07/09 19:22:10;;;;;;;;;;;24.00;71.00;;;22.91;62.30;99882.53;10246320;28;951;-64
2023/07/09 19:27:05;;;;;;;;;;;24.00;70.80;;;22.89;62.44;99882.63;10246525;28;849;-64
2023/07/09 19:32:04;;;;;;;;;;;24.00;71.00;;;22.89;62.62;99887.94;10244134;28;1902;-64
2023/07/09 19:37:00;;;;;;;;;;;24.00;71.30;;;22.88;62.49;99891.56;10245078;28;883;-65
2023/07/09 19:41:55;;;;;;;;;;;24.00;71.50;;;22.89;62.53;99889.75;10243236;28;1161;-65
2023/07/09 19:46:51;;;;;;;;;;;24.00;71.60;;;22.89;62.86;99895.91;10244587;28;930;-65
2023/07/09 19:51:46;;;;;;;;;;;24.00;71.80;;;22.89;62.79;99898.56;10245269;28;1918;-64
2023/07/09 19:56:41;;;;;;;;;;;24.00;71.70;;;22.89;62.76;99898.56;10244380;28;806;-65
2023/07/09 20:01:37;;;;;;;;;;;24.00;72.10;;;22.89;62.79;99913.66;10243918;28;799;-64
2023/07/09 20:06:32;;;;;;;;;;;24.00;72.10;;;22.89;62.97;99935.78;10244134;28;779;-65
2023/07/09 20:11:28;;;;;;;;;;;24.00;71.90;;;22.89;62.73;99946.41;10244075;28;1914;-65
2023/07/09 20:16:23;;;;;;;;;;;24.00;72.90;;;22.89;63.04;99951.72;10244360;28;826;-65
2023/07/09 20:21:19;;;;;;;;;;;24.00;72.10;;;22.89;63.19;99957.03;10244516;28;886;-65
2023/07/09 20:26:14;;;;;;;;;;;24.00;71.80;;;22.91;62.80;99960.47;10242340;28;1067;-66
2023/07/09 20:31:09;;;;;;;;;;;24.00;71.80;;;22.91;62.88;99971.09;10243934;28;1918;-65
2023/07/09 20:36:05;;;;;;;;;;;24.00;71.70;;;22.91;62.60;99971.09;10243156;28;817;-65
2023/07/09 20:41:00;;;;;;;;;;;24.00;71.30;;;22.91;62.72;99968.44;10245875;28;826;-65
2023/07/09 20:45:56;;;;;;;;;;;24.00;71.10;;;22.92;62.62;99972.84;10251936;28;805;-65
2023/07/09 20:50:56;;;;;;;;;;;24.00;70.60;;;22.92;62.43;99959.53;10251923;28;1918;-66
2023/07/09 20:55:51;;;;;;;;;;;24.00;70.50;;;22.93;62.20;99963.06;10251834;28;767;-66
2023/07/09 21:00:47;;;;;;;;;;;24.00;70.00;;;22.92;62.28;99971.94;10251828;28;960;-66
2023/07/09 21:05:42;;;;;;;;;;;24.00;70.20;;;22.91;62.22;99965.78;10250647;28;929;-66
2023/07/09 21:10:38;;;;;;;;;;;24.00;70.00;;;22.91;62.28;99965.78;10251668;28;1975;-65
2023/07/09 21:15:33;;;;;;;;;;;24.00;69.90;;;22.94;61.88;99970.91;10250821;28;893;-65
2023/07/09 21:20:29;;;;;;;;;;;24.00;69.50;;;22.91;61.81;99973.75;10251217;28;838;-66
2023/07/09 21:25:24;;;;;;;;;;;24.00;69.80;;;22.90;62.01;99972.06;10250619;28;772;-67
2023/07/09 21:30:19;;;;;;;;;;;24.00;69.40;;;22.89;61.97;99975.66;10250432;28;1922;-66
2023/07/09 21:35:15;;;;;;;;;;;24.00;69.10;;;22.89;62.04;99972.16;10249397;28;1474;-66
2023/07/09 21:40:10;;;;;;;;;;;24.00;69.20;;;22.90;61.98;99961.44;10249837;28;847;-66
2023/07/09 21:45:06;;;;;;;;;;;24.00;69.50;;;22.89;61.73;99978.31;10249776;28;888;-66
2023/07/09 21:50:01;;;;;;;;;;;24.00;69.10;;;22.89;61.53;99986.28;10249503;28;1918;-66
2023/07/09 21:54:57;;;;;;;;;;;24.00;69.10;;;22.88;61.69;99989.91;10248795;28;949;-65
2023/07/09 21:59:52;;;;;;;;;;;24.00;69.00;;;22.90;61.49;99998.66;10248632;28;880;-66
2023/07/09 22:04:50;;;;;;;;;;;24.00;68.80;;;22.89;61.46;99982.78;10249532;28;873;-66
2023/07/09 22:09:45;;;;;;;;;;;24.00;68.80;;;22.89;61.38;99982.78;10248639;28;1971;-67
2023/07/09 22:14:41;;;;;;;;;;;24.00;68.80;;;22.86;61.44;99983.81;10249188;28;859;-67
2023/07/09 22:19:36;;;;;;;;;;;24.00;68.80;;;22.87;61.42;99996.19;10249030;28;958;-67
2023/07/09 22:24:31;;;;;;;;;;;24.00;68.70;;;22.86;61.60;100004.22;10248241;28;810;-67
2023/07/09 22:29:27;;;;;;;;;;;24.00;68.60;;;22.86;61.32;100005.09;10247939;28;1961;-67
2023/07/09 22:34:22;;;;;;;;;;;24.00;68.70;;;22.85;61.35;100019.34;10248555;28;1306;-67
2023/07/09 22:39:18;;;;;;;;;;;24.00;68.50;;;22.85;61.34;100014.00;10248319;28;788;-67
2023/07/09 22:44:13;;;;;;;;;;;23.90;68.50;;;22.85;61.16;100013.16;10247545;28;926;-67
2023/07/09 22:49:09;;;;;;;;;;;24.00;68.40;;;22.83;61.44;100005.28;10247236;28;1922;-67
2023/07/09 22:54:04;;;;;;;;;;;23.90;68.40;;;22.83;61.27;100021.22;10247129;28;766;-67
2023/07/09 22:58:59;;;;;;;;;;;23.90;68.30;;;22.83;61.10;100015.91;10246818;28;881;-67
2023/07/09 23:03:55;;;;;;;;;;;23.90;68.30;;;22.83;61.16;100015.06;10246588;28;888;-67
2023/07/09 23:08:50;;;;;;;;;;;24.00;68.30;;;22.82;61.31;100008.91;10246515;28;1914;-67
2023/07/09 23:13:46;;;;;;;;;;;23.90;68.10;;;22.82;61.19;100019.53;10246331;28;934;-67
2023/07/09 23:18:44;;;;;;;;;;;23.90;68.10;;;22.79;61.12;100017.03;10246735;28;914;-67
2023/07/09 23:23:40;;;;;;;;;;;23.90;68.10;;;22.81;61.12;100009.81;10246476;28;857;-67
2023/07/09 23:28:37;;;;;;;;;;;23.90;68.20;;;22.80;61.10;100018.75;10246280;28;1913;-67
2023/07/09 23:33:33;;;;;;;;;;;23.90;68.00;;;22.80;61.21;100025.88;10245121;28;1122;-67
2023/07/09 23:38:28;;;;;;;;;;;23.90;67.90;;;22.80;60.84;100020.56;10245530;28;897;-67
2023/07/09 23:43:23;;;;;;;;;;;23.90;67.80;;;22.79;60.99;100022.34;10228763;28;773;-67
2023/07/09 23:48:19;;;;;;;;;;;23.90;67.90;;;22.79;61.00;100022.34;10244475;28;1910;-67
2023/07/09 23:53:14;;;;;;;;;;;23.80;67.80;;;22.78;60.95;100023.28;10245551;28;817;-67
2023/07/09 23:58:10;;;;;;;;;;;23.90;67.90;;;22.78;60.88;100023.28;10244924;28;814;-67
